»·PEaware :: N4VY KINW-KPHX

N4VY :: KINW-KPHX

FLIGHT INFORMATION

Flight Status: Arrived
Operator: Privately registered:
United States
More flights under this callsign
Pilot: Jeremy H. (30118)
Aircraft: CESSNA 172 SKYHAWK
(C172)
More flights by this aircraft type
Origin: KINW Winslow-Lindbergh Regl
United States
Destination: KPHX Phoenix Sky Harbor Intl
United States
More flights between these airports :: More routes between these airports
Route:
File this flight plan on PilotEdge
Remarks:
Altitude:
(Current/Filed)
8,500ft
Speed:
(Current/Filed)
120kts
Departed: 29-Oct-20 05:26 PM
Arrived: 29-Oct-20 06:23 PM
Distance/Time
Traveled:
115nm/0:57
Distance/Time
To Go:
Arrived

Flight Plot

Page will automatically refresh every two minutes.

Flight plan parsing failed; only flown route is shown


Map Options




Map Legend


Flown Route
Filed Route
Departure Airport
Arrival Airport
Navaid (VOR, NDB)
Fix

Horizontal Profiles

Position Reports

Time Latitude Longitude Heading Altitude Ground
Speed
29-Oct-20 17:23 35.019846 -110.726781 58 4909ft 0kts
29-Oct-20 17:24 35.019862 -110.726748 56 4909ft 7kts
29-Oct-20 17:25 35.031416 -110.707866 357 5401ft 76kts
29-Oct-20 17:26 35.052734 -110.729241 302 5704ft 110kts
29-Oct-20 17:27 35.068978 -110.760552 302 6306ft 107kts
29-Oct-20 17:28 35.090529 -110.770559 59 6892ft 100kts
29-Oct-20 17:29 35.093339 -110.743858 139 7407ft 95kts
29-Oct-20 17:30 35.076763 -110.760454 251 8001ft 95kts
29-Oct-20 17:31 35.064618 -110.787729 227 8600ft 90kts
29-Oct-20 17:32 35.043940 -110.813750 222 8679ft 123kts
29-Oct-20 17:33 35.020041 -110.841955 222 8676ft 130kts
29-Oct-20 17:34 35.002103 -110.863008 218 8676ft 144kts
29-Oct-20 17:35 34.987357 -110.880311 214 8674ft 160kts
29-Oct-20 17:36 34.967420 -110.903420 210 8674ft 189kts
29-Oct-20 17:37 34.943616 -110.931344 215 8671ft 200kts
29-Oct-20 17:38 34.923534 -110.954860 224 8670ft 206kts
29-Oct-20 17:39 34.893132 -110.990667 218 8671ft 198kts
29-Oct-20 17:40 34.853481 -111.036959 218 8672ft 197kts
29-Oct-20 17:42 34.813916 -111.083108 218 8673ft 197kts
29-Oct-20 17:43 34.774370 -111.129168 218 8674ft 197kts
29-Oct-20 17:44 34.734764 -111.175234 218 8675ft 197kts
29-Oct-20 17:45 34.694953 -111.221258 218 8676ft 198kts
29-Oct-20 17:46 34.654991 -111.267533 218 8677ft 198kts
29-Oct-20 17:47 34.614988 -111.313850 218 8678ft 199kts
29-Oct-20 17:48 34.575041 -111.360040 218 8679ft 199kts
29-Oct-20 17:49 34.534891 -111.406391 218 8680ft 199kts
29-Oct-20 17:50 34.494733 -111.452701 218 8681ft 199kts
29-Oct-20 17:51 34.454521 -111.499005 218 8682ft 199kts
29-Oct-20 17:52 34.414445 -111.545087 218 8683ft 200kts
29-Oct-20 17:53 34.374172 -111.591330 218 8684ft 200kts
29-Oct-20 17:54 34.333710 -111.637725 218 8685ft 200kts
29-Oct-20 17:55 34.293612 -111.683649 217 8674ft 198kts
29-Oct-20 17:56 34.253536 -111.729459 217 8675ft 198kts
29-Oct-20 17:57 34.213499 -111.775175 217 8676ft 198kts
29-Oct-20 17:58 34.180375 -111.797154 183 8675ft 169kts
29-Oct-20 17:59 34.148068 -111.807108 193 8594ft 136kts
29-Oct-20 18:00 34.078689 -111.827356 191 8138ft 142kts
29-Oct-20 18:00 34.013596 -111.845980 191 7474ft 145kts
29-Oct-20 18:02 33.921902 -111.872197 191 6542ft 145kts
29-Oct-20 18:02 33.880124 -111.884477 191 6115ft 145kts
29-Oct-20 18:04 33.835393 -111.897342 191 5639ft 130kts
29-Oct-20 18:04 33.807353 -111.905330 191 5298ft 121kts
29-Oct-20 18:06 33.767031 -111.916765 190 4838ft 134kts
29-Oct-20 18:06 33.736374 -111.925483 191 4503ft 135kts
29-Oct-20 18:07 33.699929 -111.935845 191 4105ft 136kts
29-Oct-20 18:08 33.663672 -111.946146 191 3710ft 136kts
29-Oct-20 18:09 33.640190 -111.972668 261 3476ft 130kts
29-Oct-20 18:10 33.635551 -112.014964 261 3476ft 127kts
29-Oct-20 18:11 33.622282 -112.051310 214 3475ft 122kts
29-Oct-20 18:12 33.595791 -112.076146 214 3474ft 122kts
29-Oct-20 18:13 33.570170 -112.099540 205 3465ft 122kts
29-Oct-20 18:14 33.535777 -112.096687 178 2998ft 136kts
29-Oct-20 18:15 33.499366 -112.097714 180 2521ft 138kts
29-Oct-20 18:16 33.463404 -112.098440 180 2040ft 120kts
29-Oct-20 18:17 33.447819 -112.085702 110 1695ft 58kts
29-Oct-20 18:18 33.444206 -112.068954 110 1684ft 78kts
29-Oct-20 18:19 33.441054 -112.051208 89 1607ft 71kts
29-Oct-20 18:20 33.440789 -112.035918 86 1394ft 70kts
29-Oct-20 18:21 33.440850 -112.021230 84 1116ft 45kts
29-Oct-20 18:22 33.441809 -112.020445 325 1116ft 0kts
29-Oct-20 18:23 33.441926 -112.017017 92 1119ft 31kts
29-Oct-20 18:24 33.441960 -112.009193 96 1124ft 21kts
29-Oct-20 18:25 33.442625 -112.024734 359 1113ft 0kts
29-Oct-20 18:26 33.442625 -112.024734 359 1113ft 0kts
29-Oct-20 18:27 33.442625 -112.024734 359 1113ft 0kts
29-Oct-20 18:28 33.442625 -112.024734 359 1113ft 0kts
29-Oct-20 18:29 33.442625 -112.024734 359 1113ft 0kts
29-Oct-20 18:30 33.442625 -112.024734 359 1113ft 0kts
29-Oct-20 18:31 33.442625 -112.024734 359 1113ft 0kts
29-Oct-20 18:32 33.442625 -112.024734 359 1113ft 0kts
29-Oct-20 18:33 33.442625 -112.024734 359 1113ft 0kts
29-Oct-20 18:34 33.442625 -112.024734 359 1113ft 0kts
29-Oct-20 18:35 33.442625 -112.024734 359 1113ft 0kts
29-Oct-20 18:36 33.442624 -112.024734 193 1113ft 0kts

Navigation Log

Ident Type
Flight plan parsing failed, navigation log unavailable